Maple Plain, Minnesota
Current Conditions -  °F | °C
As of 7:35 PM on Friday 24 Oct 2014 (Local Time) from KCFE Reporting Station
Clear Clear  
Wind Chill: 58°   Ceiling: Unl
Heat Index: 58°   Visibility: 10mi
Dew Point: 49°   Wind: 0mph
Humidity: 74%   Direction: NA
Pressure: 29.86"   Gusts: NA
Location:  45.01°N, 93.66°W
Report Text: KCFE 250035Z AUTO 00000KT 10SM CLR 14/10 A2986 RMK AO2 T01420097
Loading
Personal Weather Stations






























Interactive Weather Map
Tropical Storm Tracking
New forecast layout! Learn more

10-Day Weather Forecast

Advertisements
Track Severe Weather on mobile